createdAt,value
2018-09-12T00:00:40.310Z,14.50
2018-09-12T00:01:40.290Z,13.90
2018-09-12T00:02:40.272Z,13.80
2018-09-12T00:03:40.253Z,14.70
2018-09-12T00:04:40.235Z,14.70
2018-09-12T00:05:40.216Z,14.30
2018-09-12T00:06:40.199Z,16.10
2018-09-12T00:07:40.188Z,16.80
2018-09-12T00:08:40.161Z,12.10
2018-09-12T00:09:40.143Z,13.30
2018-09-12T00:10:40.128Z,14.50
2018-09-12T00:11:40.105Z,15.50
2018-09-12T00:12:40.087Z,14.50
2018-09-12T00:13:40.070Z,17.00
2018-09-12T00:14:40.052Z,13.30
2018-09-12T00:15:40.032Z,17.00
2018-09-12T00:16:40.014Z,13.70
2018-09-12T00:17:39.996Z,15.60
2018-09-12T00:18:39.976Z,17.30
2018-09-12T00:19:39.958Z,14.40
2018-09-12T00:20:39.939Z,16.00
2018-09-12T00:21:39.921Z,14.20
2018-09-12T00:22:39.903Z,15.10
2018-09-12T00:23:39.884Z,13.80
2018-09-12T00:24:39.866Z,13.00
2018-09-12T00:25:39.848Z,13.20
2018-09-12T00:26:39.829Z,14.40
2018-09-12T00:27:39.816Z,18.40
2018-09-12T00:28:39.792Z,16.00
2018-09-12T00:29:39.782Z,13.00
2018-09-12T00:30:39.758Z,13.50
2018-09-12T00:31:39.736Z,15.90
2018-09-12T00:32:39.719Z,17.60
2018-09-12T00:33:39.699Z,13.10
2018-09-12T00:34:39.682Z,15.50
2018-09-12T00:35:39.661Z,12.70
2018-09-12T00:36:39.644Z,13.60
2018-09-12T00:37:39.625Z,16.60
2018-09-12T00:38:39.610Z,13.70
2018-09-12T00:39:39.588Z,14.60
2018-09-12T00:40:39.570Z,13.00
2018-09-12T00:41:39.551Z,12.30
2018-09-12T00:42:39.532Z,15.60
2018-09-12T00:43:39.514Z,15.80
2018-09-12T00:44:39.495Z,12.90
2018-09-12T00:45:39.476Z,16.30
2018-09-12T00:46:39.457Z,14.70
2018-09-12T00:47:39.438Z,13.80
2018-09-12T00:48:39.429Z,12.90
2018-09-12T00:49:39.402Z,17.60
2018-09-12T00:50:39.383Z,14.80
2018-09-12T00:51:39.365Z,14.60
2018-09-12T00:52:39.345Z,14.80
2018-09-12T00:53:39.329Z,12.00
2018-09-12T00:54:39.308Z,14.30
2018-09-12T00:55:39.289Z,15.50
2018-09-12T00:56:39.270Z,12.00
2018-09-12T00:57:39.254Z,13.70
2018-09-12T00:58:39.242Z,12.60
2018-09-12T00:59:39.216Z,11.50
2018-09-12T01:00:39.196Z,12.00
2018-09-12T01:01:39.178Z,12.40
2018-09-12T01:02:39.159Z,13.40
2018-09-12T01:03:39.140Z,12.80
2018-09-12T01:04:39.120Z,11.60
2018-09-12T01:05:39.101Z,11.30
2018-09-12T01:06:39.082Z,13.30
2018-09-12T01:07:39.064Z,12.50
2018-09-12T01:08:39.046Z,13.50
2018-09-12T01:09:39.026Z,11.90
2018-09-12T01:10:39.007Z,13.70
2018-09-12T01:11:38.989Z,12.50
2018-09-12T01:12:38.968Z,12.50
2018-09-12T01:13:38.955Z,12.60
2018-09-12T01:14:38.931Z,12.90
2018-09-12T01:15:38.911Z,14.50
2018-09-12T01:16:38.893Z,13.80
2018-09-12T01:17:38.874Z,12.40
2018-09-12T01:18:38.855Z,12.20
2018-09-12T01:19:38.837Z,13.60
2018-09-12T01:20:38.818Z,14.50
2018-09-12T01:21:38.799Z,13.50
2018-09-12T01:22:38.780Z,12.20
2018-09-12T01:23:38.762Z,15.90
2018-09-12T01:24:38.741Z,13.20
2018-09-12T01:25:39.473Z,12.70
2018-09-12T01:26:38.705Z,14.20
2018-09-12T01:27:38.685Z,13.00
2018-09-12T01:28:38.667Z,15.30
2018-09-12T01:29:38.646Z,13.00
2018-09-12T01:30:38.627Z,15.10
2018-09-12T01:31:38.609Z,14.70
2018-09-12T01:32:38.590Z,12.60
2018-09-12T01:33:38.570Z,12.40
2018-09-12T01:34:38.551Z,14.60
2018-09-12T01:35:38.532Z,15.30
2018-09-12T01:36:38.513Z,13.70
2018-09-12T01:37:38.493Z,12.90
2018-09-12T01:38:38.475Z,13.90
2018-09-12T01:39:38.455Z,12.00
2018-09-12T01:40:38.436Z,14.10
2018-09-12T01:41:38.419Z,17.90
2018-09-12T01:42:38.400Z,14.70
2018-09-12T01:43:38.384Z,12.90
2018-09-12T01:44:38.360Z,15.10
2018-09-12T01:45:38.342Z,13.40
2018-09-12T01:46:38.322Z,14.20
2018-09-12T01:47:38.303Z,15.10
2018-09-12T01:48:38.283Z,15.90
2018-09-12T01:49:38.265Z,14.70
2018-09-12T01:50:38.246Z,16.10
2018-09-12T01:51:38.226Z,14.50
2018-09-12T01:52:38.213Z,14.90
2018-09-12T01:53:38.188Z,13.70
2018-09-12T01:54:38.170Z,11.90
2018-09-12T01:55:38.149Z,12.90
2018-09-12T01:56:38.130Z,12.60
2018-09-12T01:57:38.111Z,16.60
2018-09-12T01:58:38.092Z,16.20
2018-09-12T01:59:38.073Z,14.30
2018-09-12T02:00:38.053Z,14.10
2018-09-12T02:01:38.034Z,14.40
2018-09-12T02:02:38.019Z,14.10
2018-09-12T02:03:37.997Z,13.80
2018-09-12T02:04:37.979Z,15.70
2018-09-12T02:05:37.958Z,15.80
2018-09-12T02:06:37.938Z,15.60
2018-09-12T02:07:37.920Z,15.50
2018-09-12T02:08:37.900Z,15.10
2018-09-12T02:09:37.882Z,15.20
2018-09-12T02:10:37.861Z,16.70
2018-09-12T02:11:37.841Z,18.10
2018-09-12T02:12:37.823Z,14.80
2018-09-12T02:13:37.805Z,17.10
2018-09-12T02:14:37.785Z,14.90
2018-09-12T02:15:37.764Z,15.50
2018-09-12T02:16:37.747Z,18.70
2018-09-12T02:17:37.728Z,14.90
2018-09-12T02:18:37.708Z,17.30
2018-09-12T02:19:37.687Z,17.70
2018-09-12T02:20:37.669Z,17.00
2018-09-12T02:21:37.649Z,14.80
2018-09-12T02:22:37.629Z,14.50
2018-09-12T02:23:37.609Z,15.50
2018-09-12T02:24:37.592Z,17.70
2018-09-12T02:25:37.571Z,15.20
2018-09-12T02:26:37.552Z,14.60
2018-09-12T02:27:37.533Z,17.10
2018-09-12T02:28:37.513Z,20.90
2018-09-12T02:29:37.494Z,17.10
2018-09-12T02:30:37.475Z,17.70
2018-09-12T02:31:37.454Z,15.00
2018-09-12T02:32:37.436Z,16.40
2018-09-12T02:33:37.417Z,17.60
2018-09-12T02:34:37.398Z,16.80
2018-09-12T02:35:37.381Z,17.50
2018-09-12T02:36:37.363Z,15.80
2018-09-12T02:37:37.339Z,16.00
2018-09-12T02:38:37.323Z,18.80
2018-09-12T02:39:38.051Z,16.00
2018-09-12T02:40:37.279Z,15.60
2018-09-12T02:41:37.260Z,17.30
2018-09-12T02:42:37.242Z,15.90
2018-09-12T02:43:37.222Z,15.50
2018-09-12T02:44:37.207Z,16.60
2018-09-12T02:45:37.183Z,18.80
2018-09-12T02:46:37.163Z,17.10
2018-09-12T02:47:37.144Z,17.20
2018-09-12T02:48:37.127Z,19.60
2018-09-12T02:49:37.106Z,16.60
2018-09-12T02:50:37.090Z,16.90
2018-09-12T02:51:37.066Z,17.70
2018-09-12T02:52:37.052Z,17.70
2018-09-12T02:53:37.028Z,19.80
2018-09-12T02:54:37.007Z,18.00
2018-09-12T02:55:36.988Z,16.40
2018-09-12T02:56:36.967Z,18.00
2018-09-12T02:57:36.948Z,17.40
2018-09-12T02:58:36.929Z,16.10
2018-09-12T02:59:36.908Z,18.50
2018-09-12T03:00:36.891Z,17.70
2018-09-12T03:01:36.869Z,19.80
2018-09-12T03:02:36.850Z,15.70
2018-09-12T03:03:36.831Z,15.10
2018-09-12T03:04:36.810Z,15.80
2018-09-12T03:05:36.791Z,15.60
2018-09-12T03:06:37.523Z,16.00
2018-09-12T03:07:36.750Z,16.70
2018-09-12T03:08:36.732Z,19.30
2018-09-12T03:09:36.713Z,17.00
2018-09-12T03:10:36.693Z,15.30
2018-09-12T03:11:36.672Z,15.80
2018-09-12T03:12:36.655Z,16.30
2018-09-12T03:13:36.633Z,18.10
2018-09-12T03:14:36.614Z,19.60
2018-09-12T03:15:36.595Z,18.70
2018-09-12T03:16:36.573Z,18.80
2018-09-12T03:17:36.556Z,20.90
2018-09-12T03:18:36.534Z,16.10
2018-09-12T03:19:36.514Z,18.00
2018-09-12T03:20:36.568Z,15.20
2018-09-12T03:21:36.475Z,16.50
2018-09-12T03:22:36.456Z,15.00
2018-09-12T03:23:36.435Z,16.50
2018-09-12T03:24:36.415Z,15.10
2018-09-12T03:25:36.397Z,14.30
2018-09-12T03:26:36.376Z,16.80
2018-09-12T03:27:37.113Z,17.70
2018-09-12T03:28:36.339Z,14.80
2018-09-12T03:29:36.318Z,14.40
2018-09-12T03:30:36.297Z,14.10
2018-09-12T03:31:36.277Z,14.00
2018-09-12T03:32:36.263Z,17.50
2018-09-12T03:33:36.235Z,14.60
2018-09-12T03:34:36.218Z,15.30
2018-09-12T03:35:36.195Z,15.30
2018-09-12T03:36:36.176Z,15.20
2018-09-12T03:37:36.156Z,18.00
2018-09-12T03:38:36.136Z,15.90
2018-09-12T03:39:36.116Z,15.40
2018-09-12T03:40:36.096Z,15.40
2018-09-12T03:41:36.076Z,18.40
2018-09-12T03:42:36.056Z,16.60
2018-09-12T03:43:36.036Z,16.60
2018-09-12T03:44:36.016Z,15.30
2018-09-12T03:45:35.996Z,16.70
2018-09-12T03:46:35.977Z,17.00
2018-09-12T03:47:35.956Z,15.30
2018-09-12T03:48:35.935Z,14.20
2018-09-12T03:49:35.917Z,15.50
2018-09-12T03:50:35.896Z,18.00
2018-09-12T03:51:35.875Z,18.10
2018-09-12T03:52:35.856Z,17.60
2018-09-12T03:53:38.090Z,15.80
2018-09-12T03:54:35.816Z,13.80
2018-09-12T03:55:35.796Z,14.70
2018-09-12T03:56:35.777Z,15.10
2018-09-12T03:57:35.756Z,14.90
2018-09-12T03:58:35.736Z,14.50
2018-09-12T03:59:35.715Z,15.40
2018-09-12T04:00:35.694Z,19.30
2018-09-12T04:01:35.675Z,15.10
2018-09-12T04:02:35.775Z,18.00
2018-09-12T04:03:35.635Z,15.40
2018-09-12T04:04:35.615Z,16.00
2018-09-12T04:05:35.595Z,16.60
2018-09-12T04:06:35.575Z,15.40
2018-09-12T04:07:35.554Z,14.90
2018-09-12T04:08:35.534Z,16.10
2018-09-12T04:09:35.517Z,16.60
2018-09-12T04:10:35.495Z,16.30
2018-09-12T04:11:35.475Z,16.50
2018-09-12T04:12:35.456Z,15.80
2018-09-12T04:13:35.434Z,15.10
2018-09-12T04:14:35.416Z,14.80
2018-09-12T04:15:35.395Z,15.60
2018-09-12T04:16:35.376Z,14.10
2018-09-12T04:17:35.356Z,17.00
2018-09-12T04:18:35.335Z,16.10
2018-09-12T04:19:35.315Z,15.90
2018-09-12T04:20:36.049Z,15.90
2018-09-12T04:21:35.274Z,18.20
2018-09-12T04:22:35.255Z,16.40
2018-09-12T04:23:35.234Z,15.30
2018-09-12T04:24:35.214Z,18.30
2018-09-12T04:25:35.195Z,16.30
2018-09-12T04:26:35.175Z,17.10
2018-09-12T04:27:35.154Z,17.80
2018-09-12T04:28:35.135Z,15.60
2018-09-12T04:29:35.115Z,14.90
2018-09-12T04:30:35.095Z,18.20
2018-09-12T04:31:35.073Z,17.50
2018-09-12T04:32:35.055Z,16.30
2018-09-12T04:33:35.035Z,16.80
2018-09-12T04:34:35.015Z,17.90
2018-09-12T04:35:34.995Z,18.10
2018-09-12T04:36:34.974Z,18.20
2018-09-12T04:37:34.954Z,17.10
2018-09-12T04:38:34.934Z,16.30
2018-09-12T04:39:34.918Z,19.80
2018-09-12T04:40:34.895Z,16.80
2018-09-12T04:41:34.877Z,15.70
2018-09-12T04:42:34.865Z,16.60
2018-09-12T04:43:34.835Z,20.00
2018-09-12T04:44:34.815Z,15.40
2018-09-12T04:45:34.796Z,19.50
2018-09-12T04:46:34.775Z,16.40
2018-09-12T04:47:34.754Z,17.80
2018-09-12T04:48:34.846Z,17.40
2018-09-12T04:49:34.714Z,16.20
2018-09-12T04:50:34.694Z,17.40
2018-09-12T04:51:34.676Z,17.00
2018-09-12T04:52:34.654Z,17.20
2018-09-12T04:53:34.639Z,17.50
2018-09-12T04:54:34.615Z,19.70
2018-09-12T04:55:34.593Z,18.50
2018-09-12T04:56:34.576Z,19.70
2018-09-12T04:57:34.559Z,17.80
2018-09-12T04:58:34.535Z,17.70
2018-09-12T04:59:34.550Z,19.00
2018-09-12T05:00:34.496Z,17.00
2018-09-12T05:01:34.475Z,17.80
2018-09-12T05:02:34.457Z,18.00
2018-09-12T05:03:34.435Z,18.10
2018-09-12T05:04:34.414Z,21.00
2018-09-12T05:05:34.395Z,17.80
2018-09-12T05:06:34.376Z,20.60
2018-09-12T05:07:34.355Z,18.50
2018-09-12T05:08:34.334Z,20.20
2018-09-12T05:09:34.315Z,17.50
2018-09-12T05:10:34.296Z,18.10
2018-09-12T05:11:34.274Z,20.70
2018-09-12T05:12:34.257Z,20.20
2018-09-12T05:13:34.245Z,18.60
2018-09-12T05:14:34.217Z,18.40
2018-09-12T05:15:34.196Z,16.80
2018-09-12T05:16:34.214Z,18.00
2018-09-12T05:17:34.157Z,17.80
2018-09-12T05:18:34.136Z,18.90
2018-09-12T05:19:34.116Z,17.10
2018-09-12T05:20:34.095Z,20.40
2018-09-12T05:21:34.076Z,18.10
2018-09-12T05:22:34.059Z,17.40
2018-09-12T05:23:34.037Z,17.10
2018-09-12T05:24:34.016Z,18.10
2018-09-12T05:25:33.996Z,18.40
2018-09-12T05:26:33.979Z,19.00
2018-09-12T05:27:33.957Z,20.30
2018-09-12T05:28:34.054Z,17.10
2018-09-12T05:29:33.918Z,16.90
2018-09-12T05:30:33.901Z,18.30
2018-09-12T05:31:33.876Z,17.10
2018-09-12T05:32:33.857Z,17.00
2018-09-12T05:33:33.838Z,18.60
2018-09-12T05:34:33.817Z,20.10
2018-09-12T05:35:33.798Z,18.70
2018-09-12T05:36:33.778Z,18.20
2018-09-12T05:37:33.759Z,19.30
2018-09-12T05:38:33.847Z,19.10
2018-09-12T05:39:33.718Z,18.60
2018-09-12T05:40:33.700Z,19.50
2018-09-12T05:41:33.680Z,17.30
2018-09-12T05:42:33.661Z,20.90
2018-09-12T05:43:33.655Z,18.40
2018-09-12T05:44:33.620Z,16.50
2018-09-12T05:45:33.635Z,17.30
2018-09-12T05:46:33.601Z,18.30
2018-09-12T05:47:33.564Z,19.40
2018-09-12T05:48:33.544Z,16.50
2018-09-12T05:49:33.522Z,17.10
2018-09-12T05:50:33.548Z,17.30
2018-09-12T05:51:33.489Z,17.00
2018-09-12T05:52:33.462Z,20.10
2018-09-12T05:53:37.947Z,17.50
2018-09-12T05:54:33.423Z,18.80
2018-09-12T05:55:33.406Z,16.20
2018-09-12T05:56:33.384Z,17.70
2018-09-12T05:57:33.364Z,16.60
2018-09-12T05:58:33.348Z,18.20
2018-09-12T05:59:34.075Z,18.00
2018-09-12T06:00:33.306Z,17.10
2018-09-12T06:01:33.286Z,20.10
2018-09-12T06:02:33.266Z,19.00
2018-09-12T06:03:33.247Z,18.10
2018-09-12T06:04:33.227Z,17.90
2018-09-12T06:05:33.210Z,18.00
2018-09-12T06:06:33.324Z,17.80
2018-09-12T06:07:33.168Z,16.90
2018-09-12T06:08:33.148Z,17.20
2018-09-12T06:09:33.129Z,17.30
2018-09-12T06:10:33.110Z,19.20
2018-09-12T06:11:33.090Z,18.30
2018-09-12T06:12:33.073Z,20.20
2018-09-12T06:13:33.052Z,21.50
2018-09-12T06:14:33.034Z,20.00
2018-09-12T06:15:33.012Z,19.50
2018-09-12T06:16:32.993Z,18.90
2018-09-12T06:17:32.974Z,19.00
2018-09-12T06:18:32.955Z,19.50
2018-09-12T06:19:32.935Z,23.60
2018-09-12T06:20:32.915Z,16.60
2018-09-12T06:21:32.896Z,18.40
2018-09-12T06:22:32.878Z,18.20
2018-09-12T06:23:32.857Z,17.10
2018-09-12T06:24:32.840Z,17.20
2018-09-12T06:25:32.821Z,18.50
2018-09-12T06:26:35.805Z,17.00
2018-09-12T06:27:32.783Z,19.00
2018-09-12T06:28:32.766Z,17.50
2018-09-12T06:29:32.747Z,19.90
2018-09-12T06:30:32.725Z,18.60
2018-09-12T06:31:32.709Z,15.80
2018-09-12T06:32:33.437Z,16.60
2018-09-12T06:33:32.669Z,16.80
2018-09-12T06:34:32.649Z,19.80
2018-09-12T06:35:32.628Z,16.90
2018-09-12T06:36:32.609Z,17.10
2018-09-12T06:37:32.598Z,19.90
2018-09-12T06:38:32.615Z,17.80
2018-09-12T06:39:32.567Z,17.30
2018-09-12T06:40:32.532Z,18.40
2018-09-12T06:41:32.513Z,19.50
2018-09-12T06:42:32.496Z,16.80
2018-09-12T06:43:32.480Z,17.90
2018-09-12T06:44:32.501Z,17.10
2018-09-12T06:45:32.437Z,16.30
2018-09-12T06:46:32.419Z,16.60
2018-09-12T06:47:32.400Z,18.10
2018-09-12T06:48:32.380Z,19.20
2018-09-12T06:49:32.362Z,19.30
2018-09-12T06:50:32.345Z,18.60
2018-09-12T06:51:32.327Z,17.80
2018-09-12T06:52:32.306Z,17.20
2018-09-12T06:53:32.287Z,19.70
2018-09-12T06:54:32.278Z,17.20
2018-09-12T06:55:32.250Z,21.60
2018-09-12T06:56:32.230Z,20.90
2018-09-12T06:57:32.212Z,17.00
2018-09-12T06:58:32.194Z,17.40
2018-09-12T06:59:32.175Z,19.90
2018-09-12T07:00:32.179Z,16.80
2018-09-12T07:01:32.138Z,23.50
2018-09-12T07:02:32.119Z,17.10
2018-09-12T07:03:32.100Z,17.00
2018-09-12T07:04:32.082Z,16.90
2018-09-12T07:05:32.063Z,16.60
2018-09-12T07:06:32.046Z,18.00
2018-09-12T07:07:32.029Z,18.10
2018-09-12T07:08:32.007Z,17.80
2018-09-12T07:09:31.989Z,16.50
2018-09-12T07:10:31.971Z,19.90
2018-09-12T07:11:31.951Z,23.90
2018-09-12T07:12:31.934Z,20.30
2018-09-12T07:13:31.917Z,18.10
2018-09-12T07:14:31.897Z,19.70
2018-09-12T07:15:31.878Z,21.00
2018-09-12T07:16:31.860Z,16.90
2018-09-12T07:17:31.842Z,20.30
2018-09-12T07:18:31.826Z,21.20
2018-09-12T07:19:31.808Z,17.60
2018-09-12T07:20:31.791Z,18.20
2018-09-12T07:21:31.820Z,23.30
2018-09-12T07:22:31.752Z,18.80
2018-09-12T07:23:31.732Z,22.60
2018-09-12T07:24:31.805Z,21.50
2018-09-12T07:25:32.448Z,19.50
2018-09-12T07:26:31.680Z,21.50
2018-09-12T07:27:31.700Z,19.40
2018-09-12T07:28:31.641Z,21.00
2018-09-12T07:29:31.624Z,22.10
2018-09-12T07:30:31.656Z,18.90
2018-09-12T07:31:31.590Z,21.70
2018-09-12T07:32:31.571Z,21.80
2018-09-12T07:33:31.552Z,18.60
2018-09-12T07:34:31.536Z,20.90
2018-09-12T07:35:31.520Z,23.60
2018-09-12T07:36:31.499Z,21.40
2018-09-12T07:37:31.480Z,23.90
2018-09-12T07:38:31.467Z,22.40
2018-09-12T07:39:31.445Z,21.40
2018-09-12T07:40:31.427Z,18.10
2018-09-12T07:41:31.467Z,17.00
2018-09-12T07:42:31.391Z,22.90
2018-09-12T07:43:31.373Z,22.50
2018-09-12T07:44:31.356Z,23.00
2018-09-12T07:45:31.339Z,17.70
2018-09-12T07:46:31.321Z,23.40
2018-09-12T07:47:31.302Z,19.00
2018-09-12T07:48:31.285Z,20.30
2018-09-12T07:49:31.267Z,18.90
2018-09-12T07:50:31.250Z,19.90
2018-09-12T07:51:31.232Z,21.70
2018-09-12T07:52:31.215Z,19.70
2018-09-12T07:53:31.199Z,19.40
2018-09-12T07:54:31.178Z,16.50
2018-09-12T07:55:31.160Z,15.70
2018-09-12T07:56:31.208Z,15.90
2018-09-12T07:57:31.127Z,17.20
2018-09-12T07:58:31.108Z,19.70
2018-09-12T07:59:31.090Z,21.10
2018-09-12T08:00:31.150Z,17.30
2018-09-12T08:01:31.057Z,17.70
2018-09-12T08:02:31.040Z,17.80
2018-09-12T08:03:31.023Z,20.70
2018-09-12T08:04:31.004Z,16.60
2018-09-12T08:05:30.987Z,17.50
2018-09-12T08:06:30.969Z,15.30
2018-09-12T08:07:30.952Z,18.30
2018-09-12T08:08:30.933Z,14.10
2018-09-12T08:09:30.916Z,22.20
2018-09-12T08:10:30.900Z,15.80
2018-09-12T08:11:30.881Z,14.80
2018-09-12T08:12:30.865Z,12.80
2018-09-12T08:13:30.847Z,16.80
2018-09-12T08:14:30.830Z,16.00
2018-09-12T08:15:30.812Z,14.70
2018-09-12T08:16:30.801Z,16.40
2018-09-12T08:17:30.777Z,13.50
2018-09-12T08:18:30.761Z,15.30
2018-09-12T08:19:30.743Z,16.80
2018-09-12T08:20:30.727Z,21.00
2018-09-12T08:21:30.710Z,22.90
2018-09-12T08:22:30.693Z,17.30
2018-09-12T08:23:30.675Z,16.60
2018-09-12T08:24:30.658Z,17.00
2018-09-12T08:25:30.641Z,14.90
2018-09-12T08:26:30.629Z,18.10
2018-09-12T08:27:30.607Z,14.60
2018-09-12T08:28:30.590Z,14.90
2018-09-12T08:29:30.573Z,17.20
2018-09-12T08:30:30.557Z,13.10
2018-09-12T08:31:30.540Z,14.00
2018-09-12T08:32:30.527Z,16.90
2018-09-12T08:33:30.508Z,16.70
2018-09-12T08:34:30.493Z,14.60
2018-09-12T08:35:30.522Z,16.00
2018-09-12T08:36:30.538Z,14.50
2018-09-12T08:37:30.438Z,12.70
2018-09-12T08:38:30.424Z,15.50
2018-09-12T08:39:30.405Z,12.60
2018-09-12T08:40:30.392Z,14.90
2018-09-12T08:41:30.373Z,17.80
2018-09-12T08:42:30.365Z,14.30
2018-09-12T08:43:30.338Z,17.60
2018-09-12T08:44:30.323Z,17.60
2018-09-12T08:45:30.305Z,13.40
2018-09-12T08:46:30.290Z,16.30
2018-09-12T08:47:30.272Z,17.70
2018-09-12T08:48:30.257Z,15.60
2018-09-12T08:49:30.240Z,12.90
2018-09-12T08:50:30.223Z,17.60
2018-09-12T08:51:31.707Z,17.40
2018-09-12T08:52:30.189Z,18.00
2018-09-12T08:53:30.172Z,14.60
2018-09-12T08:54:30.156Z,19.90
2018-09-12T08:55:30.139Z,15.30
2018-09-12T08:56:30.126Z,19.20
2018-09-12T08:57:30.907Z,16.60
2018-09-12T08:58:30.090Z,14.90
2018-09-12T08:59:30.074Z,13.60
2018-09-12T09:00:30.057Z,13.40
2018-09-12T09:01:30.111Z,14.60
2018-09-12T09:02:30.025Z,15.10
2018-09-12T09:03:30.007Z,19.60
2018-09-12T09:04:29.992Z,15.80
2018-09-12T09:05:29.977Z,13.70
2018-09-12T09:06:29.960Z,17.20
2018-09-12T09:07:29.945Z,15.40
2018-09-12T09:08:29.927Z,14.90
2018-09-12T09:09:29.910Z,14.90
2018-09-12T09:10:29.992Z,13.70
2018-09-12T09:11:29.878Z,13.40
2018-09-12T09:12:29.861Z,14.60
2018-09-12T09:13:29.846Z,16.00
2018-09-12T09:14:29.829Z,12.40
2018-09-12T09:15:29.813Z,16.10
2018-09-12T09:16:29.797Z,12.70
2018-09-12T09:17:29.780Z,14.10
2018-09-12T09:18:29.764Z,15.70
2018-09-12T09:19:29.747Z,17.40
2018-09-12T09:20:29.732Z,13.40
2018-09-12T09:21:29.717Z,15.20
2018-09-12T09:22:29.700Z,17.30
2018-09-12T09:23:29.691Z,14.60
2018-09-12T09:24:29.668Z,12.70
2018-09-12T09:25:29.654Z,14.00
2018-09-12T09:26:29.635Z,15.70
2018-09-12T09:27:29.620Z,14.70
2018-09-12T09:28:29.606Z,12.90
2018-09-12T09:29:29.655Z,12.90
2018-09-12T09:30:29.573Z,15.90
2018-09-12T09:31:29.556Z,15.50
2018-09-12T09:32:29.548Z,15.00
2018-09-12T09:33:29.526Z,13.10
2018-09-12T09:34:29.509Z,12.30
2018-09-12T09:35:29.688Z,12.50
2018-09-12T09:36:29.477Z,14.50
2018-09-12T09:37:29.460Z,15.80
2018-09-12T09:38:29.445Z,13.00
2018-09-12T09:39:29.433Z,16.60
2018-09-12T09:40:29.413Z,12.10
2018-09-12T09:41:29.398Z,14.50
2018-09-12T09:42:29.386Z,14.10
2018-09-12T09:43:29.366Z,11.70
2018-09-12T09:44:30.852Z,18.50
2018-09-12T09:45:29.395Z,11.10
2018-09-12T09:46:29.320Z,13.70
2018-09-12T09:47:29.304Z,12.90
2018-09-12T09:48:29.318Z,12.00
2018-09-12T09:49:29.335Z,11.10
2018-09-12T09:50:30.011Z,13.50
2018-09-12T09:51:29.241Z,13.40
2018-09-12T09:52:29.229Z,11.40
2018-09-12T09:53:29.210Z,9.80
2018-09-12T09:54:29.231Z,11.80
2018-09-12T09:55:29.181Z,12.10
2018-09-12T09:56:29.164Z,11.20
2018-09-12T09:57:29.149Z,12.30
2018-09-12T09:58:29.134Z,10.00
2018-09-12T09:59:29.117Z,11.10
2018-09-12T10:00:29.153Z,13.70
2018-09-12T10:01:29.089Z,10.00
2018-09-12T10:02:29.072Z,10.40
2018-09-12T10:03:29.058Z,11.20
2018-09-12T10:04:29.045Z,10.90
2018-09-12T10:05:29.027Z,12.90
2018-09-12T10:06:30.513Z,11.40
2018-09-12T10:07:28.995Z,13.40
2018-09-12T10:08:28.981Z,12.90
2018-09-12T10:09:28.965Z,11.90
2018-09-12T10:10:28.971Z,9.60
2018-09-12T10:11:28.936Z,11.30
2018-09-12T10:12:29.671Z,11.60
2018-09-12T10:13:28.904Z,12.80
2018-09-12T10:14:28.891Z,9.40
2018-09-12T10:15:28.877Z,11.50
2018-09-12T10:16:28.859Z,10.60
2018-09-12T10:17:28.844Z,9.60
2018-09-12T10:18:28.829Z,10.00
2018-09-12T10:19:28.814Z,11.60
2018-09-12T10:20:28.799Z,7.80
2018-09-12T10:21:28.785Z,7.00
2018-09-12T10:22:28.770Z,8.40
2018-09-12T10:23:28.754Z,9.00
2018-09-12T10:24:28.740Z,8.00
2018-09-12T10:25:28.726Z,9.50
2018-09-12T10:26:28.711Z,10.90
2018-09-12T10:27:28.695Z,7.20
2018-09-12T10:28:28.682Z,7.60
2018-09-12T10:29:28.666Z,12.40
2018-09-12T10:30:28.651Z,8.60
2018-09-12T10:31:28.636Z,9.40
2018-09-12T10:32:28.622Z,7.30
2018-09-12T10:33:28.607Z,9.90
2018-09-12T10:34:28.593Z,8.50
2018-09-12T10:35:28.576Z,9.50
2018-09-12T10:36:28.563Z,7.60
2018-09-12T10:37:28.548Z,7.60
2018-09-12T10:38:28.539Z,8.60
2018-09-12T10:39:28.518Z,7.90
2018-09-12T10:40:28.504Z,7.60
2018-09-12T10:41:28.489Z,10.90
2018-09-12T10:42:28.474Z,9.30
2018-09-12T10:43:28.459Z,6.60
2018-09-12T10:44:28.445Z,10.10
2018-09-12T10:45:28.431Z,9.00
2018-09-12T10:46:28.416Z,8.30
2018-09-12T10:47:28.401Z,7.70
2018-09-12T10:48:28.387Z,9.50
2018-09-12T10:49:28.372Z,7.90
2018-09-12T10:50:28.358Z,7.80
2018-09-12T10:51:28.342Z,6.80
2018-09-12T10:52:28.330Z,10.10
2018-09-12T10:53:28.314Z,8.60
2018-09-12T10:54:28.301Z,8.30
2018-09-12T10:55:28.286Z,6.00
2018-09-12T10:56:28.270Z,8.90
2018-09-12T10:57:28.256Z,5.80
2018-09-12T10:58:28.241Z,8.00
2018-09-12T10:59:28.230Z,7.60
2018-09-12T11:00:28.213Z,11.60
2018-09-12T11:01:28.198Z,9.70
2018-09-12T11:02:28.186Z,7.10
2018-09-12T11:03:28.170Z,8.90
2018-09-12T11:04:28.271Z,7.50
2018-09-12T11:05:28.141Z,6.50
2018-09-12T11:06:28.131Z,7.50
2018-09-12T11:07:28.112Z,7.00
2018-09-12T11:08:28.098Z,7.20
2018-09-12T11:09:28.084Z,7.90
2018-09-12T11:10:28.071Z,10.10
2018-09-12T11:11:28.056Z,8.10
2018-09-12T11:12:28.042Z,8.30
2018-09-12T11:13:28.028Z,7.50
2018-09-12T11:14:28.017Z,8.10
2018-09-12T11:15:28.000Z,6.50
2018-09-12T11:16:27.985Z,5.60
2018-09-12T11:17:27.973Z,5.70
2018-09-12T11:18:27.958Z,7.50
2018-09-12T11:19:27.944Z,6.80
2018-09-12T11:20:27.929Z,9.50
2018-09-12T11:21:27.917Z,8.30
2018-09-12T11:22:27.901Z,8.20
2018-09-12T11:23:27.887Z,8.20
2018-09-12T11:24:27.873Z,8.00
2018-09-12T11:25:27.863Z,10.90
2018-09-12T11:26:29.347Z,6.80
2018-09-12T11:27:27.831Z,7.50
2018-09-12T11:28:27.818Z,7.70
2018-09-12T11:29:27.805Z,8.70
2018-09-12T11:30:27.792Z,7.90
2018-09-12T11:31:27.776Z,8.10
2018-09-12T11:32:28.565Z,8.80
2018-09-12T11:33:27.749Z,8.00
2018-09-12T11:34:27.737Z,9.20
2018-09-12T11:35:27.723Z,8.90
2018-09-12T11:36:27.707Z,7.50
2018-09-12T11:37:27.694Z,7.00
2018-09-12T11:38:27.682Z,9.70
2018-09-12T11:39:27.667Z,7.00
2018-09-12T11:40:27.654Z,7.80
2018-09-12T11:41:27.640Z,9.40
2018-09-12T11:42:27.625Z,9.30
2018-09-12T11:43:29.113Z,8.90
2018-09-12T11:44:27.598Z,7.40
2018-09-12T11:45:27.586Z,8.00
2018-09-12T11:46:27.572Z,6.10
2018-09-12T11:47:27.557Z,9.90
2018-09-12T11:48:27.547Z,7.50
2018-09-12T11:49:27.530Z,8.40
2018-09-12T11:50:27.518Z,9.30
2018-09-12T11:51:27.505Z,7.40
2018-09-12T11:52:27.490Z,8.20
2018-09-12T11:53:27.480Z,7.80
2018-09-12T11:54:27.464Z,9.00
2018-09-12T11:55:27.500Z,10.70
2018-09-12T11:56:27.437Z,7.70
2018-09-12T11:57:27.424Z,7.00
2018-09-12T11:58:27.410Z,6.40
2018-09-12T11:59:27.397Z,9.60
2018-09-12T12:00:30.386Z,7.10
2018-09-12T12:01:27.370Z,6.40
2018-09-12T12:02:27.357Z,8.60
2018-09-12T12:03:27.343Z,6.50
2018-09-12T12:04:27.331Z,8.00
2018-09-12T12:05:27.317Z,7.90
2018-09-12T12:06:27.305Z,11.60
2018-09-12T12:07:27.290Z,7.90
2018-09-12T12:08:27.279Z,8.00
2018-09-12T12:09:27.263Z,8.40
2018-09-12T12:10:27.251Z,7.20
2018-09-12T12:11:27.237Z,7.70
2018-09-12T12:12:27.224Z,10.80
2018-09-12T12:13:27.212Z,6.30
2018-09-12T12:14:27.198Z,7.50
2018-09-12T12:15:27.255Z,8.70
2018-09-12T12:16:27.207Z,7.80
2018-09-12T12:17:27.159Z,8.80
2018-09-12T12:18:27.146Z,6.20
2018-09-12T12:19:27.134Z,5.80
2018-09-12T12:20:27.121Z,7.40
2018-09-12T12:21:27.108Z,6.70
2018-09-12T12:22:27.195Z,6.60
2018-09-12T12:23:27.083Z,8.80
2018-09-12T12:24:27.068Z,5.40
2018-09-12T12:25:27.056Z,7.90
2018-09-12T12:26:27.043Z,8.60
2018-09-12T12:27:27.030Z,5.50
2018-09-12T12:28:27.768Z,7.00
2018-09-12T12:29:27.005Z,6.40
2018-09-12T12:30:26.992Z,8.80
2018-09-12T12:31:26.978Z,7.90
2018-09-12T12:32:26.967Z,8.60
2018-09-12T12:33:26.955Z,5.90
2018-09-12T12:34:26.942Z,8.40
2018-09-12T12:35:26.936Z,6.30
2018-09-12T12:36:26.916Z,6.60
2018-09-12T12:37:26.902Z,5.50
2018-09-12T12:38:26.892Z,7.60
2018-09-12T12:39:26.877Z,8.30
2018-09-12T12:40:26.865Z,8.00
2018-09-12T12:41:26.902Z,5.70
2018-09-12T12:42:26.839Z,6.50
2018-09-12T12:43:26.825Z,5.80
2018-09-12T12:44:26.813Z,7.00
2018-09-12T12:45:26.801Z,6.10
2018-09-12T12:46:26.788Z,4.90
2018-09-12T12:47:26.775Z,6.90
2018-09-12T12:48:26.762Z,5.40
2018-09-12T12:49:26.750Z,5.70
2018-09-12T12:50:26.738Z,8.10
2018-09-12T12:51:26.724Z,8.80
2018-09-12T12:52:26.711Z,9.10
2018-09-12T12:53:26.699Z,6.40
2018-09-12T12:54:26.688Z,8.40
2018-09-12T12:55:26.674Z,8.50
2018-09-12T12:56:26.661Z,8.10
2018-09-12T12:57:26.654Z,5.50